Current Weather

Rafha

Rafha, Saudi Arabia (OERF)

Report from: Tuesday, August 16, 2022 10:00 AM +03
Current time: Tuesday, August 16, 2022 10:34 AM +03

Nearby weather
Weather history
Weather forecast

Temperature38.0°C (100.4°F)
Heat index35.5°C (95.8°F)
Dew point5.0°C (41.0°F)
Winds 13 kts (6.7 m/s, 15 mph) North (350°)
Clouds Sky clear
Altimeter29.74 in.Hg (1007 mB)
Relative humidity13 %
Density altitude2,934 ft. (894 m)
Remarks Ceiling and visibility OK
No significant changes expected in the next two hours
Flight conditions Visual Meteorological Conditions
Raw dataOERF 160700Z 35013KT CAVOK 38/05 Q1007 NOSIG
An error has occurred. This application may no longer respond until reloaded. Reload 🗙